sensor_id;sensor_type;location;lat;lon;timestamp;temperature;humidity
27619;DHT22;15039;50.830;4.730;2023-11-21T00:00:48;9.90;99.90
27619;DHT22;15039;50.830;4.730;2023-11-21T00:03:14;10.00;99.90
27619;DHT22;15039;50.830;4.730;2023-11-21T00:05:44;10.00;99.90
27619;DHT22;15039;50.830;4.730;2023-11-21T00:08:10;10.10;99.90
27619;DHT22;15039;50.830;4.730;2023-11-21T00:10:37;10.00;99.90
27619;DHT22;15039;50.830;4.730;2023-11-21T00:13:04;10.00;99.90
27619;DHT22;15039;50.830;4.730;2023-11-21T00:15:29;10.00;99.90
27619;DHT22;15039;50.830;4.730;2023-11-21T00:17:55;10.10;99.90
27619;DHT22;15039;50.830;4.730;2023-11-21T00:20:20;10.00;99.90
27619;DHT22;15039;50.830;4.730;2023-11-21T00:22:46;9.90;99.90
27619;DHT22;15039;50.830;4.730;2023-11-21T00:25:12;9.90;99.90
27619;DHT22;15039;50.830;4.730;2023-11-21T00:27:41;9.90;99.90
27619;DHT22;15039;50.830;4.730;2023-11-21T00:30:07;9.90;99.90
27619;DHT22;15039;50.830;4.730;2023-11-21T00:32:37;9.90;99.90
27619;DHT22;15039;50.830;4.730;2023-11-21T00:35:02;10.00;99.90
27619;DHT22;15039;50.830;4.730;2023-11-21T00:37:28;10.00;99.90
27619;DHT22;15039;50.830;4.730;2023-11-21T00:39:54;10.00;99.90
27619;DHT22;15039;50.830;4.730;2023-11-21T00:42:19;9.90;99.90
27619;DHT22;15039;50.830;4.730;2023-11-21T00:44:46;9.90;99.90
27619;DHT22;15039;50.830;4.730;2023-11-21T00:47:12;9.90;99.90
27619;DHT22;15039;50.830;4.730;2023-11-21T00:49:37;9.90;99.90
27619;DHT22;15039;50.830;4.730;2023-11-21T00:52:04;9.90;99.90
27619;DHT22;15039;50.830;4.730;2023-11-21T00:54:30;10.00;99.90
27619;DHT22;15039;50.830;4.730;2023-11-21T00:56:56;10.00;99.90
27619;DHT22;15039;50.830;4.730;2023-11-21T00:59:22;9.90;99.90
27619;DHT22;15039;50.830;4.730;2023-11-21T01:01:48;9.90;99.90
27619;DHT22;15039;50.830;4.730;2023-11-21T01:04:14;9.90;99.90
27619;DHT22;15039;50.830;4.730;2023-11-21T01:06:39;9.90;99.90
27619;DHT22;15039;50.830;4.730;2023-11-21T01:09:04;9.80;99.90
27619;DHT22;15039;50.830;4.730;2023-11-21T01:11:34;9.70;99.90
27619;DHT22;15039;50.830;4.730;2023-11-21T01:14:03;9.60;99.90
27619;DHT22;15039;50.830;4.730;2023-11-21T01:16:29;9.60;99.90
27619;DHT22;15039;50.830;4.730;2023-11-21T01:18:55;9.50;99.90
27619;DHT22;15039;50.830;4.730;2023-11-21T01:21:20;9.50;99.90
27619;DHT22;15039;50.830;4.730;2023-11-21T01:23:47;9.40;99.90
27619;DHT22;15039;50.830;4.730;2023-11-21T01:26:12;9.30;99.90
27619;DHT22;15039;50.830;4.730;2023-11-21T01:28:38;9.30;99.90
27619;DHT22;15039;50.830;4.730;2023-11-21T01:31:03;9.30;99.90
27619;DHT22;15039;50.830;4.730;2023-11-21T01:33:32;9.40;99.90
27619;DHT22;15039;50.830;4.730;2023-11-21T01:35:58;9.30;99.90
27619;DHT22;15039;50.830;4.730;2023-11-21T01:38:25;9.30;99.90
27619;DHT22;15039;50.830;4.730;2023-11-21T01:40:50;9.30;99.90
27619;DHT22;15039;50.830;4.730;2023-11-21T01:43:16;9.30;99.90
27619;DHT22;15039;50.830;4.730;2023-11-21T01:45:42;9.30;99.90
27619;DHT22;15039;50.830;4.730;2023-11-21T01:48:07;9.30;99.90
27619;DHT22;15039;50.830;4.730;2023-11-21T01:50:33;9.30;99.90
27619;DHT22;15039;50.830;4.730;2023-11-21T01:52:59;9.30;99.90
27619;DHT22;15039;50.830;4.730;2023-11-21T01:55:25;9.40;99.90
27619;DHT22;15039;50.830;4.730;2023-11-21T01:57:52;9.40;99.90
27619;DHT22;15039;50.830;4.730;2023-11-21T02:00:18;9.40;99.90
27619;DHT22;15039;50.830;4.730;2023-11-21T02:02:48;9.50;99.90
27619;DHT22;15039;50.830;4.730;2023-11-21T02:05:17;9.50;99.90
27619;DHT22;15039;50.830;4.730;2023-11-21T02:07:44;9.60;99.90
27619;DHT22;15039;50.830;4.730;2023-11-21T02:10:10;9.50;99.90
27619;DHT22;15039;50.830;4.730;2023-11-21T02:12:40;9.50;99.90
27619;DHT22;15039;50.830;4.730;2023-11-21T02:15:05;9.60;99.90
27619;DHT22;15039;50.830;4.730;2023-11-21T02:17:35;9.60;99.90
27619;DHT22;15039;50.830;4.730;2023-11-21T02:20:00;9.60;99.90
27619;DHT22;15039;50.830;4.730;2023-11-21T02:22:26;9.60;99.90
27619;DHT22;15039;50.830;4.730;2023-11-21T02:24:53;9.60;99.90
27619;DHT22;15039;50.830;4.730;2023-11-21T02:27:19;9.60;99.90
27619;DHT22;15039;50.830;4.730;2023-11-21T02:29:47;9.50;99.90
27619;DHT22;15039;50.830;4.730;2023-11-21T02:32:12;9.50;99.90
27619;DHT22;15039;50.830;4.730;2023-11-21T02:34:38;9.40;99.90
27619;DHT22;15039;50.830;4.730;2023-11-21T02:37:04;9.40;99.90
27619;DHT22;15039;50.830;4.730;2023-11-21T02:39:31;9.40;99.90
27619;DHT22;15039;50.830;4.730;2023-11-21T02:41:57;9.40;99.90
27619;DHT22;15039;50.830;4.730;2023-11-21T02:44:22;9.30;99.90
27619;DHT22;15039;50.830;4.730;2023-11-21T02:46:48;9.30;99.90
27619;DHT22;15039;50.830;4.730;2023-11-21T02:49:13;9.40;99.90
27619;DHT22;15039;50.830;4.730;2023-11-21T02:51:39;9.40;99.90
27619;DHT22;15039;50.830;4.730;2023-11-21T02:54:05;9.40;99.90
27619;DHT22;15039;50.830;4.730;2023-11-21T02:56:33;9.40;99.90
27619;DHT22;15039;50.830;4.730;2023-11-21T02:58:59;9.40;99.90
27619;DHT22;15039;50.830;4.730;2023-11-21T03:01:25;9.40;99.90
27619;DHT22;15039;50.830;4.730;2023-11-21T03:03:51;9.50;99.90
27619;DHT22;15039;50.830;4.730;2023-11-21T03:06:17;9.50;99.90
27619;DHT22;15039;50.830;4.730;2023-11-21T03:08:42;9.40;99.90
27619;DHT22;15039;50.830;4.730;2023-11-21T03:11:08;9.40;99.90
27619;DHT22;15039;50.830;4.730;2023-11-21T03:13:33;9.40;99.90
27619;DHT22;15039;50.830;4.730;2023-11-21T03:15:59;9.30;99.90
27619;DHT22;15039;50.830;4.730;2023-11-21T03:18:25;9.30;99.90
27619;DHT22;15039;50.830;4.730;2023-11-21T03:20:51;9.40;99.90
27619;DHT22;15039;50.830;4.730;2023-11-21T03:23:17;9.40;99.90
27619;DHT22;15039;50.830;4.730;2023-11-21T03:25:43;9.40;99.90
27619;DHT22;15039;50.830;4.730;2023-11-21T03:28:08;9.30;99.90
27619;DHT22;15039;50.830;4.730;2023-11-21T03:30:34;9.40;99.90
27619;DHT22;15039;50.830;4.730;2023-11-21T03:32:59;9.50;99.90
27619;DHT22;15039;50.830;4.730;2023-11-21T03:35:25;9.60;99.90
27619;DHT22;15039;50.830;4.730;2023-11-21T03:37:51;9.50;99.90
27619;DHT22;15039;50.830;4.730;2023-11-21T03:40:17;9.50;99.90
27619;DHT22;15039;50.830;4.730;2023-11-21T03:42:42;9.50;99.90
27619;DHT22;15039;50.830;4.730;2023-11-21T03:45:08;9.50;99.90
27619;DHT22;15039;50.830;4.730;2023-11-21T03:47:34;9.60;99.90
27619;DHT22;15039;50.830;4.730;2023-11-21T03:49:59;9.60;99.90
27619;DHT22;15039;50.830;4.730;2023-11-21T03:52:25;9.60;99.90
27619;DHT22;15039;50.830;4.730;2023-11-21T03:54:50;9.60;99.90
27619;DHT22;15039;50.830;4.730;2023-11-21T03:57:16;9.60;99.90
27619;DHT22;15039;50.830;4.730;2023-11-21T03:59:42;9.60;99.90
27619;DHT22;15039;50.830;4.730;2023-11-21T04:02:08;9.70;99.90
27619;DHT22;15039;50.830;4.730;2023-11-21T04:04:34;9.70;99.90
27619;DHT22;15039;50.830;4.730;2023-11-21T04:06:59;9.80;99.90
27619;DHT22;15039;50.830;4.730;2023-11-21T04:09:25;9.70;99.90
27619;DHT22;15039;50.830;4.730;2023-11-21T04:11:53;9.70;99.90
27619;DHT22;15039;50.830;4.730;2023-11-21T04:14:19;9.70;99.90
27619;DHT22;15039;50.830;4.730;2023-11-21T04:16:45;9.70;99.90
27619;DHT22;15039;50.830;4.730;2023-11-21T04:19:10;9.60;99.90
27619;DHT22;15039;50.830;4.730;2023-11-21T04:21:36;9.60;99.90
27619;DHT22;15039;50.830;4.730;2023-11-21T04:24:02;9.70;99.90
27619;DHT22;15039;50.830;4.730;2023-11-21T04:26:27;9.70;99.90
27619;DHT22;15039;50.830;4.730;2023-11-21T04:28:53;9.70;99.90
27619;DHT22;15039;50.830;4.730;2023-11-21T04:31:18;9.80;99.90
27619;DHT22;15039;50.830;4.730;2023-11-21T04:33:44;9.80;99.90
27619;DHT22;15039;50.830;4.730;2023-11-21T04:36:10;9.80;99.90
27619;DHT22;15039;50.830;4.730;2023-11-21T04:38:35;9.80;99.90
27619;DHT22;15039;50.830;4.730;2023-11-21T04:41:01;9.80;99.90
27619;DHT22;15039;50.830;4.730;2023-11-21T04:43:27;9.70;99.90
27619;DHT22;15039;50.830;4.730;2023-11-21T04:45:54;9.70;99.90
27619;DHT22;15039;50.830;4.730;2023-11-21T04:48:20;9.70;99.90
27619;DHT22;15039;50.830;4.730;2023-11-21T04:50:45;9.70;99.90
27619;DHT22;15039;50.830;4.730;2023-11-21T04:53:11;9.70;99.90
27619;DHT22;15039;50.830;4.730;2023-11-21T04:55:39;9.70;99.90
27619;DHT22;15039;50.830;4.730;2023-11-21T04:58:05;9.70;99.90
27619;DHT22;15039;50.830;4.730;2023-11-21T05:00:30;9.80;99.90
27619;DHT22;15039;50.830;4.730;2023-11-21T05:02:56;9.80;99.90
27619;DHT22;15039;50.830;4.730;2023-11-21T05:05:21;9.80;99.90
27619;DHT22;15039;50.830;4.730;2023-11-21T05:07:47;9.70;99.90
27619;DHT22;15039;50.830;4.730;2023-11-21T05:10:14;9.70;99.90
27619;DHT22;15039;50.830;4.730;2023-11-21T05:12:40;9.70;99.90
27619;DHT22;15039;50.830;4.730;2023-11-21T05:15:06;9.80;99.90
27619;DHT22;15039;50.830;4.730;2023-11-21T05:17:35;9.80;99.90
27619;DHT22;15039;50.830;4.730;2023-11-21T05:20:02;9.80;99.90
27619;DHT22;15039;50.830;4.730;2023-11-21T05:22:34;9.80;99.90
27619;DHT22;15039;50.830;4.730;2023-11-21T05:24:59;9.80;99.90
27619;DHT22;15039;50.830;4.730;2023-11-21T05:27:25;9.90;99.90
27619;DHT22;15039;50.830;4.730;2023-11-21T05:29:51;9.90;99.90
27619;DHT22;15039;50.830;4.730;2023-11-21T05:32:16;9.80;99.90
27619;DHT22;15039;50.830;4.730;2023-11-21T05:34:42;9.90;99.90
27619;DHT22;15039;50.830;4.730;2023-11-21T05:37:08;9.90;99.90
27619;DHT22;15039;50.830;4.730;2023-11-21T05:39:34;9.90;99.90
27619;DHT22;15039;50.830;4.730;2023-11-21T05:42:01;10.00;99.90
27619;DHT22;15039;50.830;4.730;2023-11-21T05:44:26;10.00;99.90
27619;DHT22;15039;50.830;4.730;2023-11-21T05:46:52;10.00;99.90
27619;DHT22;15039;50.830;4.730;2023-11-21T05:49:17;10.00;99.90
27619;DHT22;15039;50.830;4.730;2023-11-21T05:51:47;10.00;99.90
27619;DHT22;15039;50.830;4.730;2023-11-21T05:54:12;10.00;99.90
27619;DHT22;15039;50.830;4.730;2023-11-21T05:56:38;9.90;99.90
27619;DHT22;15039;50.830;4.730;2023-11-21T05:59:03;9.90;99.90
27619;DHT22;15039;50.830;4.730;2023-11-21T06:01:29;9.80;99.90
27619;DHT22;15039;50.830;4.730;2023-11-21T06:03:55;9.80;99.90
27619;DHT22;15039;50.830;4.730;2023-11-21T06:06:21;10.00;99.90
27619;DHT22;15039;50.830;4.730;2023-11-21T06:08:50;10.10;99.90
27619;DHT22;15039;50.830;4.730;2023-11-21T06:11:16;10.10;99.90
27619;DHT22;15039;50.830;4.730;2023-11-21T06:13:41;10.10;99.90
27619;DHT22;15039;50.830;4.730;2023-11-21T06:16:07;10.10;99.90
27619;DHT22;15039;50.830;4.730;2023-11-21T06:18:35;10.10;99.90
27619;DHT22;15039;50.830;4.730;2023-11-21T06:21:00;10.20;99.90
27619;DHT22;15039;50.830;4.730;2023-11-21T06:23:27;10.30;99.90
27619;DHT22;15039;50.830;4.730;2023-11-21T06:25:53;10.20;99.90
27619;DHT22;15039;50.830;4.730;2023-11-21T06:28:18;10.20;99.90
27619;DHT22;15039;50.830;4.730;2023-11-21T06:30:44;10.20;99.90
27619;DHT22;15039;50.830;4.730;2023-11-21T06:33:12;10.20;99.90
27619;DHT22;15039;50.830;4.730;2023-11-21T06:35:38;10.30;99.90
27619;DHT22;15039;50.830;4.730;2023-11-21T06:38:03;10.30;99.90
27619;DHT22;15039;50.830;4.730;2023-11-21T06:40:30;10.30;99.90
27619;DHT22;15039;50.830;4.730;2023-11-21T06:42:56;10.30;99.90
27619;DHT22;15039;50.830;4.730;2023-11-21T06:45:24;10.30;99.90
27619;DHT22;15039;50.830;4.730;2023-11-21T06:47:49;10.30;99.90
27619;DHT22;15039;50.830;4.730;2023-11-21T06:50:15;10.30;99.90
27619;DHT22;15039;50.830;4.730;2023-11-21T06:52:40;10.40;99.90
27619;DHT22;15039;50.830;4.730;2023-11-21T06:55:06;10.40;99.90
27619;DHT22;15039;50.830;4.730;2023-11-21T06:57:33;10.30;99.90
27619;DHT22;15039;50.830;4.730;2023-11-21T06:59:59;10.30;99.90
27619;DHT22;15039;50.830;4.730;2023-11-21T07:02:24;10.30;99.90
27619;DHT22;15039;50.830;4.730;2023-11-21T07:04:50;10.30;99.90
27619;DHT22;15039;50.830;4.730;2023-11-21T07:07:16;10.30;99.90
27619;DHT22;15039;50.830;4.730;2023-11-21T07:09:41;10.30;99.90
27619;DHT22;15039;50.830;4.730;2023-11-21T07:12:07;10.30;99.90
27619;DHT22;15039;50.830;4.730;2023-11-21T07:14:36;10.30;99.90
27619;DHT22;15039;50.830;4.730;2023-11-21T07:17:02;10.30;99.90
27619;DHT22;15039;50.830;4.730;2023-11-21T07:19:28;10.30;99.90
27619;DHT22;15039;50.830;4.730;2023-11-21T07:21:54;10.40;99.90
27619;DHT22;15039;50.830;4.730;2023-11-21T07:24:20;10.40;99.90
27619;DHT22;15039;50.830;4.730;2023-11-21T07:26:46;10.40;99.90
27619;DHT22;15039;50.830;4.730;2023-11-21T07:29:13;10.50;99.90
27619;DHT22;15039;50.830;4.730;2023-11-21T07:31:38;10.40;99.90
27619;DHT22;15039;50.830;4.730;2023-11-21T07:34:05;10.50;99.90
27619;DHT22;15039;50.830;4.730;2023-11-21T07:36:31;10.60;99.90
27619;DHT22;15039;50.830;4.730;2023-11-21T07:38:57;10.70;99.90
27619;DHT22;15039;50.830;4.730;2023-11-21T07:41:22;10.70;99.90
27619;DHT22;15039;50.830;4.730;2023-11-21T07:43:48;10.70;99.90
27619;DHT22;15039;50.830;4.730;2023-11-21T07:46:14;10.70;99.90
27619;DHT22;15039;50.830;4.730;2023-11-21T07:48:40;10.70;99.90
27619;DHT22;15039;50.830;4.730;2023-11-21T07:51:07;10.80;99.90
27619;DHT22;15039;50.830;4.730;2023-11-21T07:53:33;10.90;99.90
27619;DHT22;15039;50.830;4.730;2023-11-21T07:56:03;10.80;99.90
27619;DHT22;15039;50.830;4.730;2023-11-21T07:58:29;10.80;99.90
27619;DHT22;15039;50.830;4.730;2023-11-21T08:00:54;10.80;99.90
27619;DHT22;15039;50.830;4.730;2023-11-21T08:03:20;11.00;99.90
27619;DHT22;15039;50.830;4.730;2023-11-21T08:05:46;11.00;99.90
27619;DHT22;15039;50.830;4.730;2023-11-21T08:08:12;10.90;99.90
27619;DHT22;15039;50.830;4.730;2023-11-21T08:10:37;11.00;99.90
27619;DHT22;15039;50.830;4.730;2023-11-21T08:13:04;10.90;99.90
27619;DHT22;15039;50.830;4.730;2023-11-21T08:15:29;11.00;99.90
27619;DHT22;15039;50.830;4.730;2023-11-21T08:17:57;11.00;99.90
27619;DHT22;15039;50.830;4.730;2023-11-21T08:20:24;10.90;99.90
27619;DHT22;15039;50.830;4.730;2023-11-21T08:22:50;10.90;99.90
27619;DHT22;15039;50.830;4.730;2023-11-21T08:25:18;10.90;99.90
27619;DHT22;15039;50.830;4.730;2023-11-21T08:27:45;11.00;99.90
27619;DHT22;15039;50.830;4.730;2023-11-21T08:30:11;11.00;99.90
27619;DHT22;15039;50.830;4.730;2023-11-21T08:32:37;11.10;99.90
27619;DHT22;15039;50.830;4.730;2023-11-21T08:35:03;11.00;99.90
27619;DHT22;15039;50.830;4.730;2023-11-21T08:37:29;11.10;99.90
27619;DHT22;15039;50.830;4.730;2023-11-21T08:39:57;11.10;99.90
27619;DHT22;15039;50.830;4.730;2023-11-21T08:42:24;11.20;99.90
27619;DHT22;15039;50.830;4.730;2023-11-21T08:44:50;11.20;99.90
27619;DHT22;15039;50.830;4.730;2023-11-21T08:47:16;11.20;99.90
27619;DHT22;15039;50.830;4.730;2023-11-21T08:49:42;11.10;99.90
27619;DHT22;15039;50.830;4.730;2023-11-21T08:52:07;11.20;99.90
27619;DHT22;15039;50.830;4.730;2023-11-21T08:54:33;11.20;99.90
27619;DHT22;15039;50.830;4.730;2023-11-21T08:56:59;11.20;99.90
27619;DHT22;15039;50.830;4.730;2023-11-21T08:59:26;11.20;99.90
27619;DHT22;15039;50.830;4.730;2023-11-21T09:01:52;11.20;99.90
27619;DHT22;15039;50.830;4.730;2023-11-21T09:04:17;11.20;99.90
27619;DHT22;15039;50.830;4.730;2023-11-21T09:06:43;11.20;99.90
27619;DHT22;15039;50.830;4.730;2023-11-21T09:09:08;11.20;99.90
27619;DHT22;15039;50.830;4.730;2023-11-21T09:11:35;11.40;99.90
27619;DHT22;15039;50.830;4.730;2023-11-21T09:14:01;11.50;99.90
27619;DHT22;15039;50.830;4.730;2023-11-21T09:16:28;11.50;99.90
27619;DHT22;15039;50.830;4.730;2023-11-21T09:18:54;11.50;99.90
27619;DHT22;15039;50.830;4.730;2023-11-21T09:21:19;11.60;99.90
27619;DHT22;15039;50.830;4.730;2023-11-21T09:23:45;11.60;99.90
27619;DHT22;15039;50.830;4.730;2023-11-21T09:26:11;11.60;99.90
27619;DHT22;15039;50.830;4.730;2023-11-21T09:28:36;11.70;99.90
27619;DHT22;15039;50.830;4.730;2023-11-21T09:31:07;11.80;99.90
27619;DHT22;15039;50.830;4.730;2023-11-21T09:33:34;11.90;99.90
27619;DHT22;15039;50.830;4.730;2023-11-21T09:36:00;11.90;99.90
27619;DHT22;15039;50.830;4.730;2023-11-21T09:38:26;11.90;99.90
27619;DHT22;15039;50.830;4.730;2023-11-21T09:40:54;11.90;99.90
27619;DHT22;15039;50.830;4.730;2023-11-21T09:43:20;11.90;99.90
27619;DHT22;15039;50.830;4.730;2023-11-21T09:45:48;11.90;99.90
27619;DHT22;15039;50.830;4.730;2023-11-21T09:48:16;12.00;99.90
27619;DHT22;15039;50.830;4.730;2023-11-21T09:50:42;12.10;99.90
27619;DHT22;15039;50.830;4.730;2023-11-21T09:53:18;12.20;99.90
27619;DHT22;15039;50.830;4.730;2023-11-21T09:55:52;12.10;99.90
27619;DHT22;15039;50.830;4.730;2023-11-21T09:58:18;12.20;99.90
27619;DHT22;15039;50.830;4.730;2023-11-21T10:00:45;12.10;99.90
27619;DHT22;15039;50.830;4.730;2023-11-21T10:03:11;12.10;99.90
27619;DHT22;15039;50.830;4.730;2023-11-21T10:05:38;12.10;99.90
27619;DHT22;15039;50.830;4.730;2023-11-21T10:08:04;12.00;99.90
27619;DHT22;15039;50.830;4.730;2023-11-21T10:10:32;11.90;99.90
27619;DHT22;15039;50.830;4.730;2023-11-21T10:13:00;12.00;99.90
27619;DHT22;15039;50.830;4.730;2023-11-21T10:15:28;11.90;99.90
27619;DHT22;15039;50.830;4.730;2023-11-21T10:17:54;11.90;99.90
27619;DHT22;15039;50.830;4.730;2023-11-21T10:20:20;11.90;99.90
27619;DHT22;15039;50.830;4.730;2023-11-21T10:22:46;12.00;99.90
27619;DHT22;15039;50.830;4.730;2023-11-21T10:25:12;12.20;99.90
27619;DHT22;15039;50.830;4.730;2023-11-21T10:27:39;12.30;99.90
27619;DHT22;15039;50.830;4.730;2023-11-21T10:30:06;12.30;99.90
27619;DHT22;15039;50.830;4.730;2023-11-21T10:32:33;12.40;99.90
27619;DHT22;15039;50.830;4.730;2023-11-21T10:34:58;12.40;99.90
27619;DHT22;15039;50.830;4.730;2023-11-21T10:37:25;12.40;99.90
27619;DHT22;15039;50.830;4.730;2023-11-21T10:39:59;12.30;99.90
27619;DHT22;15039;50.830;4.730;2023-11-21T10:42:24;12.20;99.90
27619;DHT22;15039;50.830;4.730;2023-11-21T10:44:50;12.20;99.90
27619;DHT22;15039;50.830;4.730;2023-11-21T10:47:16;12.10;99.90
27619;DHT22;15039;50.830;4.730;2023-11-21T10:49:44;11.90;99.90
27619;DHT22;15039;50.830;4.730;2023-11-21T10:52:13;11.80;99.90
27619;DHT22;15039;50.830;4.730;2023-11-21T10:54:43;11.70;99.90
27619;DHT22;15039;50.830;4.730;2023-11-21T10:57:08;11.60;99.90
27619;DHT22;15039;50.830;4.730;2023-11-21T11:02:07;11.80;99.90
27619;DHT22;15039;50.830;4.730;2023-11-21T11:04:38;11.80;99.90
27619;DHT22;15039;50.830;4.730;2023-11-21T11:07:04;11.80;99.90
27619;DHT22;15039;50.830;4.730;2023-11-21T11:09:31;11.80;99.90
27619;DHT22;15039;50.830;4.730;2023-11-21T11:11:59;11.90;99.90
27619;DHT22;15039;50.830;4.730;2023-11-21T11:17:01;11.90;99.90
27619;DHT22;15039;50.830;4.730;2023-11-21T11:19:27;11.90;99.90
27619;DHT22;15039;50.830;4.730;2023-11-21T11:31:57;11.90;99.90
27619;DHT22;15039;50.830;4.730;2023-11-21T11:34:26;11.80;99.90
27619;DHT22;15039;50.830;4.730;2023-11-21T11:36:57;11.80;99.90
27619;DHT22;15039;50.830;4.730;2023-11-21T11:39:35;11.80;99.90
27619;DHT22;15039;50.830;4.730;2023-11-21T11:42:06;11.90;99.90
27619;DHT22;15039;50.830;4.730;2023-11-21T11:47:21;11.80;99.90
27619;DHT22;15039;50.830;4.730;2023-11-21T11:52:49;11.80;99.90
27619;DHT22;15039;50.830;4.730;2023-11-21T11:55:16;11.80;99.90
27619;DHT22;15039;50.830;4.730;2023-11-21T11:57:46;11.80;99.90
27619;DHT22;15039;50.830;4.730;2023-11-21T12:02:57;11.70;99.90
27619;DHT22;15039;50.830;4.730;2023-11-21T12:05:24;11.80;99.90
27619;DHT22;15039;50.830;4.730;2023-11-21T12:07:53;11.70;99.90
27619;DHT22;15039;50.830;4.730;2023-11-21T12:10:26;11.70;99.90
27619;DHT22;15039;50.830;4.730;2023-11-21T12:12:54;11.80;99.90
27619;DHT22;15039;50.830;4.730;2023-11-21T12:15:21;11.80;99.90
27619;DHT22;15039;50.830;4.730;2023-11-21T12:17:47;12.00;99.90
27619;DHT22;15039;50.830;4.730;2023-11-21T12:20:14;11.80;99.90
27619;DHT22;15039;50.830;4.730;2023-11-21T12:22:50;12.00;99.90
27619;DHT22;15039;50.830;4.730;2023-11-21T12:25:17;12.10;99.90
27619;DHT22;15039;50.830;4.730;2023-11-21T12:27:47;12.20;99.90
27619;DHT22;15039;50.830;4.730;2023-11-21T12:30:15;12.20;99.90
27619;DHT22;15039;50.830;4.730;2023-11-21T12:32:42;12.20;99.90
27619;DHT22;15039;50.830;4.730;2023-11-21T12:35:08;12.30;99.90
27619;DHT22;15039;50.830;4.730;2023-11-21T12:37:35;12.40;99.90
27619;DHT22;15039;50.830;4.730;2023-11-21T12:40:01;12.40;99.90
27619;DHT22;15039;50.830;4.730;2023-11-21T12:42:27;12.30;99.90
27619;DHT22;15039;50.830;4.730;2023-11-21T12:45:18;12.30;99.90
27619;DHT22;15039;50.830;4.730;2023-11-21T12:47:44;12.50;99.90
27619;DHT22;15039;50.830;4.730;2023-11-21T12:50:10;12.40;99.90
27619;DHT22;15039;50.830;4.730;2023-11-21T12:52:53;12.20;99.90
27619;DHT22;15039;50.830;4.730;2023-11-21T12:55:22;12.40;99.90
27619;DHT22;15039;50.830;4.730;2023-11-21T12:57:48;12.50;99.90
27619;DHT22;15039;50.830;4.730;2023-11-21T13:00:17;12.60;99.90
27619;DHT22;15039;50.830;4.730;2023-11-21T13:02:56;12.60;99.90
27619;DHT22;15039;50.830;4.730;2023-11-21T13:05:27;12.50;99.90
27619;DHT22;15039;50.830;4.730;2023-11-21T13:07:56;12.60;99.90
27619;DHT22;15039;50.830;4.730;2023-11-21T13:10:25;12.30;99.90
27619;DHT22;15039;50.830;4.730;2023-11-21T13:12:54;12.30;99.90
27619;DHT22;15039;50.830;4.730;2023-11-21T13:15:20;12.50;99.90
27619;DHT22;15039;50.830;4.730;2023-11-21T13:17:46;12.60;99.90
27619;DHT22;15039;50.830;4.730;2023-11-21T13:20:12;12.40;99.90
27619;DHT22;15039;50.830;4.730;2023-11-21T13:22:51;12.40;99.90
27619;DHT22;15039;50.830;4.730;2023-11-21T13:25:23;12.30;99.90
27619;DHT22;15039;50.830;4.730;2023-11-21T13:27:48;12.40;99.90
27619;DHT22;15039;50.830;4.730;2023-11-21T13:30:15;12.20;99.90
27619;DHT22;15039;50.830;4.730;2023-11-21T13:32:41;12.20;99.90
27619;DHT22;15039;50.830;4.730;2023-11-21T13:35:07;12.20;99.90
27619;DHT22;15039;50.830;4.730;2023-11-21T13:37:38;12.40;99.90
27619;DHT22;15039;50.830;4.730;2023-11-21T13:40:04;12.50;99.90
27619;DHT22;15039;50.830;4.730;2023-11-21T13:42:40;12.50;99.90
27619;DHT22;15039;50.830;4.730;2023-11-21T13:45:06;12.50;99.90
27619;DHT22;15039;50.830;4.730;2023-11-21T13:47:31;12.50;99.90
27619;DHT22;15039;50.830;4.730;2023-11-21T13:49:59;12.30;99.90
27619;DHT22;15039;50.830;4.730;2023-11-21T13:52:26;12.20;99.90
27619;DHT22;15039;50.830;4.730;2023-11-21T13:54:53;12.10;99.90
27619;DHT22;15039;50.830;4.730;2023-11-21T13:57:19;12.20;99.90
27619;DHT22;15039;50.830;4.730;2023-11-21T13:59:45;12.20;99.90
27619;DHT22;15039;50.830;4.730;2023-11-21T14:02:11;12.10;99.90
27619;DHT22;15039;50.830;4.730;2023-11-21T14:04:43;12.00;99.90
27619;DHT22;15039;50.830;4.730;2023-11-21T14:07:15;11.90;99.90
27619;DHT22;15039;50.830;4.730;2023-11-21T14:09:52;11.90;99.90
27619;DHT22;15039;50.830;4.730;2023-11-21T14:12:18;11.90;99.90
27619;DHT22;15039;50.830;4.730;2023-11-21T14:14:43;11.90;99.90
27619;DHT22;15039;50.830;4.730;2023-11-21T14:17:13;11.90;99.90
27619;DHT22;15039;50.830;4.730;2023-11-21T14:19:38;11.80;99.90
27619;DHT22;15039;50.830;4.730;2023-11-21T14:22:09;11.70;99.90
27619;DHT22;15039;50.830;4.730;2023-11-21T14:24:35;11.50;99.90
27619;DHT22;15039;50.830;4.730;2023-11-21T14:27:00;11.40;99.90
27619;DHT22;15039;50.830;4.730;2023-11-21T14:29:26;11.50;99.90
27619;DHT22;15039;50.830;4.730;2023-11-21T14:31:53;11.40;99.90
27619;DHT22;15039;50.830;4.730;2023-11-21T14:34:23;11.50;99.90
27619;DHT22;15039;50.830;4.730;2023-11-21T14:36:49;11.60;99.90
27619;DHT22;15039;50.830;4.730;2023-11-21T14:39:14;11.70;99.90
27619;DHT22;15039;50.830;4.730;2023-11-21T14:44:39;11.90;99.90
27619;DHT22;15039;50.830;4.730;2023-11-21T14:47:08;11.80;99.90
27619;DHT22;15039;50.830;4.730;2023-11-21T14:49:42;11.80;99.90
27619;DHT22;15039;50.830;4.730;2023-11-21T14:52:34;11.80;99.90
27619;DHT22;15039;50.830;4.730;2023-11-21T14:55:18;11.70;99.90
27619;DHT22;15039;50.830;4.730;2023-11-21T14:57:53;11.90;99.90
27619;DHT22;15039;50.830;4.730;2023-11-21T15:01:01;11.60;99.90
27619;DHT22;15039;50.830;4.730;2023-11-21T15:03:32;11.60;99.90
27619;DHT22;15039;50.830;4.730;2023-11-21T15:06:23;11.70;99.90
27619;DHT22;15039;50.830;4.730;2023-11-21T15:09:14;11.70;99.90
27619;DHT22;15039;50.830;4.730;2023-11-21T15:12:02;11.70;99.90
27619;DHT22;15039;50.830;4.730;2023-11-21T15:14:46;11.80;99.90
27619;DHT22;15039;50.830;4.730;2023-11-21T15:17:36;11.80;99.90
27619;DHT22;15039;50.830;4.730;2023-11-21T15:20:03;11.80;99.90
27619;DHT22;15039;50.830;4.730;2023-11-21T15:22:29;11.70;99.90
27619;DHT22;15039;50.830;4.730;2023-11-21T15:24:56;11.40;99.90
27619;DHT22;15039;50.830;4.730;2023-11-21T15:27:24;11.30;99.90
27619;DHT22;15039;50.830;4.730;2023-11-21T15:30:11;11.10;99.90
27619;DHT22;15039;50.830;4.730;2023-11-21T15:32:39;11.20;99.90
27619;DHT22;15039;50.830;4.730;2023-11-21T15:35:08;11.20;99.90
27619;DHT22;15039;50.830;4.730;2023-11-21T15:37:57;11.20;99.90
27619;DHT22;15039;50.830;4.730;2023-11-21T15:40:32;11.30;99.90
27619;DHT22;15039;50.830;4.730;2023-11-21T15:43:07;11.30;99.90
27619;DHT22;15039;50.830;4.730;2023-11-21T15:45:35;11.30;99.90
27619;DHT22;15039;50.830;4.730;2023-11-21T15:48:05;11.20;99.90
27619;DHT22;15039;50.830;4.730;2023-11-21T15:50:41;11.20;99.90
27619;DHT22;15039;50.830;4.730;2023-11-21T15:53:17;11.40;99.90
27619;DHT22;15039;50.830;4.730;2023-11-21T15:55:43;11.40;99.90
27619;DHT22;15039;50.830;4.730;2023-11-21T15:58:14;11.30;99.90
27619;DHT22;15039;50.830;4.730;2023-11-21T16:00:40;11.40;99.90
27619;DHT22;15039;50.830;4.730;2023-11-21T16:03:09;11.40;99.90